Time;durP1;ratioP1;P1;durP2;ratioP2;P2;SDS_P1;SDS_P2;PMS_P1;PMS_P2;Temp;Humidity;BMP_temperature;BMP_pressure;BME280_temperature;BME280_humidity;BME280_pressure;Samples;Min_cycle;Max_cycle;Signal;HPM_P1;HPM_P2
2022/08/20 00:00:12;;;;;;;101.80;95.43;;;18.10;99.90;;;;;;5014014;28;20262;-79
2022/08/20 00:02:40;;;;;;;96.23;90.10;;;18.10;99.90;;;;;;5012995;28;20238;-78
2022/08/20 00:05:06;;;;;;;72.57;66.83;;;18.00;99.90;;;;;;5014150;28;20179;-78
2022/08/20 00:07:32;;;;;;;50.23;46.40;;;17.90;99.90;;;;;;5013383;28;20214;-78
2022/08/20 00:09:58;;;;;;;67.63;62.77;;;17.90;99.90;;;;;;5018951;28;20259;-77
2022/08/20 00:12:24;;;;;;;71.93;66.60;;;17.90;99.90;;;;;;5022819;28;20241;-77
2022/08/20 00:14:50;;;;;;;73.03;68.13;;;17.80;99.90;;;;;;5022456;28;20183;-78
2022/08/20 00:17:17;;;;;;;62.13;57.63;;;17.80;99.90;;;;;;5016578;28;20218;-78
2022/08/20 00:19:43;;;;;;;50.47;46.37;;;17.80;99.90;;;;;;5014097;28;20184;-79
2022/08/20 00:22:09;;;;;;;36.03;32.63;;;17.80;99.90;;;;;;5013318;28;20210;-79
2022/08/20 00:24:35;;;;;;;31.10;28.10;;;17.80;99.90;;;;;;5017615;28;20326;-78
2022/08/20 00:27:01;;;;;;;33.97;30.67;;;17.80;99.90;;;;;;5019582;28;20219;-79
2022/08/20 00:29:27;;;;;;;37.30;33.80;;;17.70;99.90;;;;;;5012453;28;20187;-79
2022/08/20 00:31:53;;;;;;;42.23;38.57;;;17.70;99.90;;;;;;5016296;28;20183;-78
2022/08/20 00:34:18;;;;;;;37.73;34.40;;;17.70;99.90;;;;;;5017923;28;20183;-78
2022/08/20 00:36:45;;;;;;;26.70;24.13;;;17.60;99.90;;;;;;5012773;28;20207;-78
2022/08/20 00:39:11;;;;;;;37.13;33.67;;;17.60;99.90;;;;;;5012701;28;20180;-79
2022/08/20 00:41:37;;;;;;;33.13;29.90;;;17.50;99.90;;;;;;5013214;28;20214;-79
2022/08/20 00:44:13;;;;;;;34.93;32.03;;;17.50;99.90;;;;;;5012873;28;20262;-79
2022/08/20 00:46:41;;;;;;;38.67;35.47;;;17.40;99.90;;;;;;5013122;28;20199;-79
2022/08/20 00:49:20;;;;;;;44.73;41.20;;;17.50;99.90;;;;;;5012592;28;20183;-78
2022/08/20 00:51:56;;;;;;;52.57;48.93;;;17.40;99.90;;;;;;5012552;28;20180;-78
2022/08/20 00:54:56;;;;;;;46.80;43.57;;;17.40;99.90;;;;;;5012974;28;20528;-77
2022/08/20 00:57:33;;;;;;;35.50;32.60;;;17.30;99.90;;;;;;4979483;28;20298;-78
2022/08/20 01:00:01;;;;;;;39.97;37.07;;;17.30;99.90;;;;;;5012817;28;20187;-78
2022/08/20 01:02:30;;;;;;;69.23;64.73;;;17.30;99.90;;;;;;5013312;28;20305;-79
2022/08/20 01:04:56;;;;;;;86.73;81.13;;;17.20;99.90;;;;;;5013214;28;20190;-79
2022/08/20 01:07:31;;;;;;;97.80;91.80;;;17.20;99.90;;;;;;5011389;28;20199;-78
2022/08/20 01:10:03;;;;;;;55.90;52.10;;;17.20;99.90;;;;;;5011790;28;20229;-78
2022/08/20 01:12:30;;;;;;;73.67;69.13;;;17.20;99.90;;;;;;5012689;28;20215;-77
2022/08/20 01:14:59;;;;;;;79.73;74.60;;;17.20;99.90;;;;;;5008338;28;20271;-77
2022/08/20 01:17:28;;;;;;;67.70;63.27;;;17.20;99.90;;;;;;5018148;28;20684;-77
2022/08/20 01:20:06;;;;;;;58.87;55.47;;;17.10;99.90;;;;;;5011403;28;20564;-78
2022/08/20 01:25:53;;;;;;;54.00;50.63;;;17.00;99.90;;;;;;5011981;28;20227;-78
2022/08/20 01:28:25;;;;;;;64.07;60.23;;;17.00;99.90;;;;;;5010135;28;20234;-77
2022/08/20 01:30:51;;;;;;;53.13;49.83;;;17.00;99.90;;;;;;5011462;28;20268;-78
2022/08/20 01:33:20;;;;;;;48.77;45.70;;;17.00;99.90;;;;;;5010512;28;20579;-77
2022/08/20 01:35:46;;;;;;;83.13;78.20;;;17.00;99.90;;;;;;5026328;28;20286;-77
2022/08/20 01:38:12;;;;;;;83.10;78.47;;;17.00;99.90;;;;;;5010867;28;20271;-77
2022/08/20 01:41:16;;;;;;;60.23;56.63;;;17.00;99.90;;;;;;5018080;28;20187;-78
2022/08/20 01:43:45;;;;;;;61.20;57.60;;;17.00;99.90;;;;;;4988375;28;20199;-78
2022/08/20 01:46:12;;;;;;;28.10;25.80;;;17.00;99.90;;;;;;5013805;28;20262;-77
2022/08/20 01:48:40;;;;;;;35.33;32.77;;;16.90;99.90;;;;;;5021525;28;20187;-77
2022/08/20 01:51:17;;;;;;;56.43;52.50;;;16.90;99.90;;;;;;5022861;28;20237;-78
2022/08/20 01:53:47;;;;;;;39.63;36.97;;;16.80;99.90;;;;;;5012299;28;20564;-78
2022/08/20 01:56:17;;;;;;;52.37;48.43;;;16.80;99.90;;;;;;5012425;28;20199;-79
2022/08/20 01:58:48;;;;;;;49.53;46.13;;;16.80;99.90;;;;;;5010831;28;20537;-78
2022/08/20 02:01:22;;;;;;;55.50;51.90;;;16.80;99.90;;;;;;5011319;28;20588;-79
2022/08/20 02:03:48;;;;;;;46.57;42.77;;;16.80;99.90;;;;;;5014114;28;20191;-78
2022/08/20 02:06:15;;;;;;;45.77;41.33;;;16.80;99.90;;;;;;5019745;28;20206;-78
2022/08/20 02:08:41;;;;;;;43.30;39.97;;;16.90;99.90;;;;;;5011891;28;20648;-79
2022/08/20 02:11:08;;;;;;;39.83;36.87;;;17.00;99.90;;;;;;5013144;28;20238;-79
2022/08/20 02:13:34;;;;;;;102.43;96.10;;;17.00;99.90;;;;;;5011672;28;20187;-79
2022/08/20 02:16:00;;;;;;;37.43;34.63;;;17.10;99.90;;;;;;5012064;28;20239;-79
2022/08/20 02:18:25;;;;;;;39.50;37.07;;;17.10;99.90;;;;;;5010549;28;20224;-78
2022/08/20 02:20:51;;;;;;;116.17;109.23;;;17.10;99.90;;;;;;5012181;28;20168;-79
2022/08/20 02:23:19;;;;;;;92.07;86.83;;;17.10;99.90;;;;;;5015247;28;20306;-78
2022/08/20 02:25:46;;;;;;;103.33;97.70;;;17.00;99.90;;;;;;5015023;28;20283;-78
2022/08/20 02:28:15;;;;;;;55.70;52.70;;;17.00;99.90;;;;;;5014361;28;20298;-77
2022/08/20 02:30:48;;;;;;;70.63;66.43;;;17.00;99.90;;;;;;5014395;28;20179;-77
2022/08/20 02:33:16;;;;;;;87.93;82.90;;;16.90;99.90;;;;;;5014347;28;20279;-78
2022/08/20 02:35:45;;;;;;;88.03;83.17;;;16.80;99.90;;;;;;5025614;28;20180;-77
2022/08/20 02:38:14;;;;;;;105.70;99.77;;;16.80;99.90;;;;;;5025873;28;20311;-77
2022/08/20 02:40:43;;;;;;;181.17;171.30;;;16.80;99.90;;;;;;5026080;28;20207;-77
2022/08/20 02:43:09;;;;;;;186.27;175.67;;;16.70;99.90;;;;;;5014608;28;20211;-78
2022/08/20 02:45:42;;;;;;;65.63;61.70;;;16.70;99.90;;;;;;5013619;28;20180;-78
2022/08/20 02:48:11;;;;;;;29.93;27.70;;;16.70;99.90;;;;;;5014203;28;20188;-78
2022/08/20 02:50:36;;;;;;;30.47;28.40;;;16.60;99.90;;;;;;5013475;28;20729;-78
2022/08/20 02:53:03;;;;;;;35.23;31.67;;;16.60;99.90;;;;;;5014620;28;20267;-78
2022/08/20 02:55:29;;;;;;;49.93;44.07;;;16.50;99.90;;;;;;5013954;28;20263;-78
2022/08/20 02:57:56;;;;;;;54.57;48.93;;;16.50;99.90;;;;;;5013677;28;20228;-77
2022/08/20 03:00:23;;;;;;;86.60;79.43;;;16.40;99.90;;;;;;5019491;28;20175;-77
2022/08/20 03:02:50;;;;;;;92.60;85.97;;;16.40;99.90;;;;;;5017182;28;20200;-78
2022/08/20 03:05:16;;;;;;;44.37;40.40;;;16.40;99.90;;;;;;5018439;28;20524;-78
2022/08/20 03:07:47;;;;;;;49.00;45.37;;;16.40;99.90;;;;;;5017453;28;20209;-80
2022/08/20 03:10:14;;;;;;;56.87;53.03;;;16.40;99.90;;;;;;5019487;28;20179;-77
2022/08/20 03:12:41;;;;;;;42.13;38.40;;;16.30;99.90;;;;;;5021234;28;20183;-78
2022/08/20 03:15:10;;;;;;;42.47;36.37;;;16.30;99.90;;;;;;5030837;28;20188;-77
2022/08/20 03:17:36;;;;;;;49.90;35.27;;;16.30;99.90;;;;;;5030002;28;20618;-77
2022/08/20 03:20:07;;;;;;;52.07;38.67;;;16.40;99.90;;;;;;5015465;28;20183;-81
2022/08/20 03:22:34;;;;;;;47.33;42.37;;;16.30;99.90;;;;;;5028974;28;20694;-80
2022/08/20 03:25:00;;;;;;;45.93;42.00;;;16.30;99.90;;;;;;5015637;28;20176;-79
2022/08/20 03:27:26;;;;;;;45.37;41.73;;;16.30;99.90;;;;;;5034279;23;20715;-78
2022/08/20 03:29:51;;;;;;;46.83;43.00;;;16.30;99.90;;;;;;5016679;28;20245;-78
2022/08/20 03:32:18;;;;;;;48.17;44.27;;;16.30;99.90;;;;;;5013799;28;20180;-78
2022/08/20 03:34:44;;;;;;;76.13;39.27;;;16.20;99.90;;;;;;5017217;28;20187;-79
2022/08/20 03:37:10;;;;;;;48.60;39.03;;;16.20;99.90;;;;;;5018503;28;20203;-79
2022/08/20 03:39:37;;;;;;;61.23;35.03;;;16.20;99.90;;;;;;5018797;28;20251;-78
2022/08/20 03:42:03;;;;;;;71.80;44.60;;;16.20;99.90;;;;;;5007794;28;20219;-78
2022/08/20 03:44:29;;;;;;;108.27;44.53;;;16.20;99.90;;;;;;5002065;28;20238;-76
2022/08/20 03:46:55;;;;;;;77.97;38.00;;;16.30;99.90;;;;;;4998341;28;20211;-79
2022/08/20 03:49:22;;;;;;;117.97;40.10;;;16.30;99.90;;;;;;5001836;28;20185;-77
2022/08/20 03:51:49;;;;;;;45.53;42.00;;;16.30;99.90;;;;;;5009392;28;20187;-77
2022/08/20 03:54:14;;;;;;;54.47;49.30;;;16.40;99.90;;;;;;5018939;28;20187;-78
2022/08/20 03:56:40;;;;;;;48.00;44.23;;;16.40;99.90;;;;;;5014202;28;20208;-77
2022/08/20 03:59:07;;;;;;;69.43;41.37;;;16.40;99.90;;;;;;5013887;28;20188;-76
2022/08/20 04:01:33;;;;;;;38.37;33.33;;;16.40;99.90;;;;;;4995194;28;20763;-76
2022/08/20 04:03:59;;;;;;;36.30;33.37;;;16.40;99.90;;;;;;4992640;28;20279;-76
2022/08/20 04:06:28;;;;;;;59.83;55.30;;;16.50;99.90;;;;;;4991490;28;20205;-76
2022/08/20 04:08:54;;;;;;;104.37;94.60;;;16.50;99.90;;;;;;4990129;28;20195;-76
2022/08/20 04:11:20;;;;;;;79.67;73.70;;;16.40;99.90;;;;;;4997988;28;20175;-76
2022/08/20 04:13:46;;;;;;;73.90;68.33;;;16.40;99.90;;;;;;5012344;28;20940;-76
2022/08/20 04:16:12;;;;;;;82.97;75.73;;;16.40;99.90;;;;;;5011507;28;20180;-76
2022/08/20 04:18:37;;;;;;;135.80;79.50;;;16.30;99.90;;;;;;5011161;28;20188;-76
2022/08/20 04:21:06;;;;;;;87.63;68.27;;;16.30;99.90;;;;;;5007607;28;20658;-76
2022/08/20 04:23:32;;;;;;;99.43;56.27;;;16.30;99.90;;;;;;4991714;28;20208;-76
2022/08/20 04:25:59;;;;;;;144.27;66.50;;;16.30;99.90;;;;;;4992206;28;20240;-76
2022/08/20 04:28:27;;;;;;;54.57;50.03;;;16.40;99.90;;;;;;4990539;28;20328;-76
2022/08/20 04:30:57;;;;;;;66.80;45.43;;;16.40;99.90;;;;;;4993085;28;20180;-76
2022/08/20 04:33:25;;;;;;;63.20;57.57;;;16.40;99.90;;;;;;5010627;28;20188;-76
2022/08/20 04:35:52;;;;;;;94.73;86.50;;;16.40;99.90;;;;;;5010525;28;20684;-76
2022/08/20 04:38:21;;;;;;;88.57;82.77;;;16.40;99.90;;;;;;5009497;28;20200;-76
2022/08/20 04:40:54;;;;;;;68.53;57.60;;;16.40;99.90;;;;;;5011868;28;20186;-76
2022/08/20 04:43:35;;;;;;;48.23;45.07;;;16.30;99.90;;;;;;4991276;28;20213;-76
2022/08/20 04:46:05;;;;;;;108.53;99.57;;;16.20;99.90;;;;;;4990380;28;20228;-75
2022/08/20 04:48:32;;;;;;;108.47;100.90;;;16.20;99.90;;;;;;4991559;28;20676;-75
2022/08/20 04:51:00;;;;;;;75.60;68.27;;;16.10;99.90;;;;;;4992386;28;20208;-75
2022/08/20 04:53:28;;;;;;;36.83;26.70;;;16.20;99.90;;;;;;5010038;28;20210;-76
2022/08/20 04:55:57;;;;;;;52.47;19.57;;;16.10;99.90;;;;;;5011836;28;20198;-75
2022/08/20 04:58:36;;;;;;;41.07;17.10;;;16.10;99.90;;;;;;5009725;28;20204;-75
2022/08/20 05:01:07;;;;;;;20.83;18.80;;;16.10;99.90;;;;;;5008055;28;20266;-75
2022/08/20 05:03:34;;;;;;;27.23;25.10;;;16.10;99.90;;;;;;5008894;28;20589;-75
2022/08/20 05:06:00;;;;;;;22.07;20.50;;;16.10;99.90;;;;;;4992440;28;20597;-76
2022/08/20 05:08:26;;;;;;;23.03;21.13;;;16.20;99.90;;;;;;4991028;28;20200;-76
2022/08/20 05:10:54;;;;;;;25.33;23.50;;;16.30;99.90;;;;;;4990987;28;20176;-75
2022/08/20 05:13:20;;;;;;;20.77;19.27;;;16.40;99.90;;;;;;5010210;28;20202;-75
2022/08/20 05:15:47;;;;;;;32.40;30.23;;;16.50;99.90;;;;;;5011137;28;20179;-75
2022/08/20 05:18:17;;;;;;;49.57;46.53;;;16.60;99.90;;;;;;5009385;28;20250;-77
2022/08/20 05:20:45;;;;;;;190.63;180.20;;;16.70;99.90;;;;;;5012432;28;20660;-76
2022/08/20 05:23:14;;;;;;;224.87;212.77;;;16.80;99.90;;;;;;5010336;28;20691;-77
2022/08/20 05:25:41;;;;;;;199.77;189.10;;;16.90;99.90;;;;;;5011393;28;20648;-77
2022/08/20 05:28:11;;;;;;;179.10;169.53;;;17.00;99.90;;;;;;5009352;28;20212;-78
2022/08/20 05:30:40;;;;;;;24.53;22.73;;;17.10;99.90;;;;;;5010073;28;20183;-77
2022/08/20 05:33:08;;;;;;;56.87;53.53;;;17.20;99.90;;;;;;4992347;28;20204;-77
2022/08/20 05:35:37;;;;;;;136.87;129.50;;;17.30;99.90;;;;;;4989757;28;20181;-77
2022/08/20 05:38:05;;;;;;;117.93;111.50;;;17.30;99.90;;;;;;4989498;28;20207;-78
2022/08/20 05:40:31;;;;;;;259.60;244.60;;;17.40;99.90;;;;;;4992175;28;20184;-77
2022/08/20 05:42:57;;;;;;;130.60;123.20;;;17.40;99.90;;;;;;5007665;28;20301;-77
2022/08/20 05:45:23;;;;;;;60.73;57.53;;;17.50;99.90;;;;;;5009493;28;20270;-77
2022/08/20 05:47:49;;;;;;;49.17;46.23;;;17.60;99.90;;;;;;5010159;28;20213;-76
2022/08/20 05:50:16;;;;;;;42.77;40.37;;;17.70;99.90;;;;;;4997699;28;20338;-77
2022/08/20 05:52:42;;;;;;;24.77;23.07;;;17.70;99.90;;;;;;4990932;28;20184;-81
2022/08/20 05:55:11;;;;;;;21.10;19.60;;;17.70;99.90;;;;;;4991134;28;20195;-77
2022/08/20 05:57:39;;;;;;;17.10;16.00;;;17.80;99.90;;;;;;4989404;28;20212;-77
2022/08/20 06:00:11;;;;;;;13.87;12.87;;;17.80;99.90;;;;;;4989397;28;20183;-76
2022/08/20 06:05:23;;;;;;;13.97;13.07;;;17.90;99.90;;;;;;5002717;28;20179;-77
2022/08/20 06:07:50;;;;;;;12.87;11.87;;;18.00;99.90;;;;;;5010520;28;20557;-77
2022/08/20 06:10:16;;;;;;;16.40;15.37;;;18.00;99.90;;;;;;5011894;28;20560;-77
2022/08/20 06:12:44;;;;;;;27.80;26.23;;;18.10;99.90;;;;;;5011038;28;20667;-76
2022/08/20 06:15:11;;;;;;;37.03;35.03;;;18.10;99.90;;;;;;5001154;28;20215;-77
2022/08/20 06:17:37;;;;;;;24.40;22.97;;;18.20;99.90;;;;;;4991077;28;20739;-77
2022/08/20 06:20:07;;;;;;;23.70;22.33;;;18.20;99.90;;;;;;4991706;28;20231;-77
2022/08/20 06:22:33;;;;;;;25.70;24.27;;;18.30;99.90;;;;;;4991129;28;20298;-77
2022/08/20 06:25:00;;;;;;;39.60;37.47;;;18.40;99.90;;;;;;4998690;28;20176;-77
2022/08/20 06:27:26;;;;;;;29.17;27.47;;;18.40;99.90;;;;;;5009042;28;20594;-77
2022/08/20 06:29:53;;;;;;;38.87;36.63;;;18.50;99.90;;;;;;5009904;28;20290;-77
2022/08/20 06:32:21;;;;;;;34.70;32.37;;;18.60;99.90;;;;;;5011131;28;20182;-77
2022/08/20 06:34:47;;;;;;;24.07;22.63;;;18.70;99.90;;;;;;5005537;28;20830;-77
2022/08/20 06:37:23;;;;;;;20.77;19.53;;;18.90;99.90;;;;;;4990751;28;20216;-78
2022/08/20 06:39:50;;;;;;;36.50;34.43;;;19.10;99.90;;;;;;4991889;28;20657;-77
2022/08/20 06:42:16;;;;;;;62.17;58.80;;;19.30;99.90;;;;;;4991724;28;20216;-73
2022/08/20 06:44:41;;;;;;;38.53;36.33;;;19.50;99.90;;;;;;5001689;28;20184;-73
2022/08/20 06:47:08;;;;;;;34.00;32.17;;;19.80;99.90;;;;;;5007731;28;20204;-73
2022/08/20 06:49:35;;;;;;;32.90;31.10;;;20.00;99.90;;;;;;5008533;28;20323;-74
2022/08/20 06:52:05;;;;;;;18.37;17.40;;;20.10;99.90;;;;;;5008123;28;20175;-72
2022/08/20 06:54:33;;;;;;;15.33;14.20;;;20.20;99.90;;;;;;5007232;28;20722;-73
2022/08/20 06:56:59;;;;;;;11.33;10.63;;;20.30;99.90;;;;;;4989015;28;20303;-73
2022/08/20 06:59:25;;;;;;;8.87;8.37;;;20.30;99.90;;;;;;4989753;28;20184;-72
2022/08/20 07:01:55;;;;;;;8.50;7.87;;;20.40;99.90;;;;;;4990293;28;20236;-72
2022/08/20 07:04:25;;;;;;;8.03;7.37;;;20.40;99.90;;;;;;4991036;28;20641;-72
2022/08/20 07:06:52;;;;;;;7.73;6.97;;;20.40;99.90;;;;;;4992678;28;20215;-72
2022/08/20 07:09:19;;;;;;;8.90;8.30;;;20.40;99.90;;;;;;4993947;28;20188;-73
2022/08/20 07:11:45;;;;;;;8.50;8.00;;;20.40;99.90;;;;;;4994597;28;20218;-73
2022/08/20 07:14:11;;;;;;;8.40;7.90;;;20.50;99.90;;;;;;4994486;28;20180;-73
2022/08/20 07:16:37;;;;;;;10.57;9.87;;;20.50;99.90;;;;;;5010353;28;20556;-73
2022/08/20 07:19:03;;;;;;;10.40;9.43;;;20.60;99.90;;;;;;5013229;28;20271;-73
2022/08/20 07:21:29;;;;;;;11.77;11.07;;;20.90;99.90;;;;;;5013827;28;20594;-73
2022/08/20 07:23:55;;;;;;;10.50;9.60;;;21.10;99.90;;;;;;5013795;28;20180;-73
2022/08/20 07:26:22;;;;;;;13.77;12.87;;;21.30;99.90;;;;;;4998666;28;20580;-73
2022/08/20 07:28:48;;;;;;;16.17;15.13;;;21.40;99.90;;;;;;4993328;28;20211;-73
2022/08/20 07:33:58;;;;;;;8.63;7.80;;;21.30;99.90;;;;;;4985965;28;20181;-73
2022/08/20 07:36:24;;;;;;;10.93;9.60;;;21.10;99.90;;;;;;4995292;28;20604;-73
2022/08/20 07:38:51;;;;;;;12.83;12.03;;;20.80;99.90;;;;;;4973527;28;20685;-73
2022/08/20 07:41:17;;;;;;;15.17;14.20;;;20.70;99.90;;;;;;4973583;28;20233;-72
2022/08/20 07:43:44;;;;;;;34.30;32.40;;;20.40;99.90;;;;;;4972859;28;20945;-73
2022/08/20 07:46:16;;;;;;;48.23;45.80;;;20.20;99.90;;;;;;5005047;28;20175;-73
2022/08/20 07:48:48;;;;;;;25.93;24.40;;;20.10;99.90;;;;;;5011534;28;20186;-73
2022/08/20 07:51:16;;;;;;;63.87;60.27;;;20.00;99.90;;;;;;5012004;28;20210;-73
2022/08/20 07:53:44;;;;;;;30.63;28.90;;;20.00;99.90;;;;;;5012970;28;20179;-72
2022/08/20 07:56:15;;;;;;;28.33;26.33;;;20.00;99.90;;;;;;4998045;28;20200;-73
2022/08/20 07:58:48;;;;;;;22.50;20.90;;;20.00;99.90;;;;;;4991931;28;20184;-73
2022/08/20 08:01:20;;;;;;;24.60;23.07;;;20.10;99.90;;;;;;5010466;28;20180;-74
2022/08/20 08:03:47;;;;;;;33.90;31.87;;;20.10;99.90;;;;;;5010855;28;20187;-75
2022/08/20 08:06:13;;;;;;;27.53;25.67;;;20.00;99.90;;;;;;5011292;28;20552;-75
2022/08/20 08:08:40;;;;;;;28.40;26.90;;;20.00;99.90;;;;;;5011164;28;20179;-75
2022/08/20 08:11:07;;;;;;;28.73;27.03;;;19.90;99.90;;;;;;5013417;28;20204;-74
2022/08/20 08:13:36;;;;;;;43.47;41.07;;;19.80;99.90;;;;;;4999391;28;20745;-76
2022/08/20 08:16:06;;;;;;;114.73;108.63;;;19.70;99.90;;;;;;4986622;28;20263;-75
2022/08/20 08:18:50;;;;;;;159.63;151.37;;;19.70;99.90;;;;;;4973309;28;20345;-74
2022/08/20 08:21:17;;;;;;;41.50;38.97;;;19.70;99.90;;;;;;4973620;28;20551;-74
2022/08/20 08:23:43;;;;;;;34.53;32.63;;;19.80;99.90;;;;;;5001754;28;20215;-74
2022/08/20 08:26:14;;;;;;;18.23;16.83;;;19.90;99.90;;;;;;5017534;28;20239;-74
2022/08/20 08:28:43;;;;;;;24.67;23.27;;;19.90;99.90;;;;;;4992684;28;20204;-73
2022/08/20 08:31:09;;;;;;;17.33;16.17;;;20.00;99.90;;;;;;4991679;28;20184;-74
2022/08/20 08:33:35;;;;;;;18.30;17.07;;;20.10;99.90;;;;;;4993502;28;20212;-75
2022/08/20 08:36:08;;;;;;;16.43;15.40;;;20.20;99.90;;;;;;4992165;28;20214;-74
2022/08/20 08:38:36;;;;;;;83.07;78.77;;;20.40;99.90;;;;;;4989612;28;20191;-75
2022/08/20 08:41:25;;;;;;;81.03;76.73;;;20.50;99.90;;;;;;4991088;28;20180;-75
2022/08/20 08:43:54;;;;;;;34.07;32.07;;;20.80;99.90;;;;;;4995035;28;20663;-75
2022/08/20 08:46:25;;;;;;;189.90;179.83;;;21.10;99.90;;;;;;4991310;28;20180;-74
2022/08/20 08:48:54;;;;;;;114.27;108.33;;;21.40;99.90;;;;;;4991483;28;20188;-74
2022/08/20 08:51:28;;;;;;;85.47;81.00;;;21.90;99.90;;;;;;4990975;28;20188;-77
2022/08/20 08:53:55;;;;;;;15.83;14.73;;;22.20;99.90;;;;;;5005505;28;20184;-75
2022/08/20 08:56:25;;;;;;;15.77;14.87;;;22.40;99.90;;;;;;5011527;28;20180;-74
2022/08/20 08:58:54;;;;;;;16.73;15.57;;;22.50;99.90;;;;;;5011652;28;20191;-74
2022/08/20 09:01:22;;;;;;;21.63;20.23;;;22.90;99.90;;;;;;5010796;28;20233;-74
2022/08/20 09:03:50;;;;;;;17.73;16.63;;;23.30;99.90;;;;;;5008493;28;20190;-74
2022/08/20 09:06:22;;;;;;;61.05;57.75;;;23.50;99.90;;;;;;5011755;28;20214;-75
2022/08/20 09:08:55;;;;;;;23.57;22.13;;;23.70;99.90;;;;;;5010585;28;20179;-76
2022/08/20 09:11:23;;;;;;;12.90;12.02;;;23.80;99.90;;;;;;5012042;28;20272;-76
2022/08/20 09:13:52;;;;;;;9.30;8.80;;;24.10;99.90;;;;;;4995828;28;20180;-73
2022/08/20 09:16:21;;;;;;;9.13;8.30;;;24.20;99.90;;;;;;4989573;28;20188;-73
2022/08/20 09:18:48;;;;;;;23.17;21.90;;;24.20;99.90;;;;;;4990950;28;20212;-74
2022/08/20 09:21:14;;;;;;;23.55;22.08;;;24.10;99.90;;;;;;4991137;28;20560;-73
2022/08/20 09:23:40;;;;;;;16.08;15.05;;;24.40;99.90;;;;;;5004054;28;20204;-73
2022/08/20 09:26:06;;;;;;;11.20;10.30;;;24.50;99.90;;;;;;5010517;28;20258;-76
2022/08/20 09:28:32;;;;;;;29.70;27.77;;;24.50;99.90;;;;;;5030891;23;20255;-75
2022/08/20 09:30:58;;;;;;;16.83;15.73;;;24.30;99.90;;;;;;5009620;28;20239;-75
2022/08/20 09:33:25;;;;;;;31.30;29.52;;;24.00;99.90;;;;;;5009222;28;20274;-75
2022/08/20 09:35:51;;;;;;;49.60;46.88;;;23.70;99.90;;;;;;5011165;28;20194;-75
2022/08/20 09:38:17;;;;;;;37.28;35.17;;;23.70;99.90;;;;;;5009185;28;20218;-74
2022/08/20 09:40:43;;;;;;;17.03;15.83;;;23.80;99.90;;;;;;5010821;28;20238;-75
2022/08/20 09:43:10;;;;;;;20.33;19.17;;;23.80;99.90;;;;;;5002115;28;20246;-74
2022/08/20 09:45:37;;;;;;;36.58;34.67;;;23.80;99.90;;;;;;4989384;28;20188;-74
2022/08/20 09:48:03;;;;;;;62.33;59.03;;;23.70;99.90;;;;;;4989202;28;20230;-75
2022/08/20 09:50:32;;;;;;;68.00;64.40;;;23.50;99.90;;;;;;4991277;28;20188;-75
2022/08/20 09:53:00;;;;;;;28.57;26.67;;;23.50;99.90;;;;;;4996156;28;20537;-74
2022/08/20 09:55:37;;;;;;;8.90;8.30;;;23.70;99.90;;;;;;5010751;28;20194;-74
2022/08/20 09:58:10;;;;;;;7.23;6.63;;;23.40;99.90;;;;;;5008418;28;20277;-74
2022/08/20 10:00:36;;;;;;;34.23;32.37;;;23.80;99.90;;;;;;5009302;28;20216;-74
2022/08/20 10:03:02;;;;;;;43.13;40.50;;;24.70;99.90;;;;;;5007075;28;20330;-74
2022/08/20 10:05:28;;;;;;;8.88;7.05;;;25.50;99.90;;;;;;5010663;28;20619;-75
2022/08/20 10:07:54;;;;;;;9.43;8.73;;;26.00;99.90;;;;;;5009022;28;20761;-75
2022/08/20 10:10:20;;;;;;;8.23;7.53;;;26.00;99.90;;;;;;5013272;28;20215;-75
2022/08/20 10:12:46;;;;;;;8.25;7.50;;;25.50;99.90;;;;;;5005881;28;20187;-75
2022/08/20 10:15:13;;;;;;;8.25;7.65;;;24.90;99.90;;;;;;4990359;28;20227;-75
2022/08/20 10:17:40;;;;;;;7.32;6.72;;;24.60;99.90;;;;;;4989918;28;20266;-75
2022/08/20 10:20:09;;;;;;;7.43;6.90;;;24.20;99.90;;;;;;5003156;28;20625;-76
2022/08/20 10:22:35;;;;;;;12.63;11.82;;;23.90;99.90;;;;;;5008056;28;20617;-76
2022/08/20 10:25:02;;;;;;;15.52;14.52;;;23.70;99.90;;;;;;5010330;28;20184;-76
2022/08/20 10:27:27;;;;;;;51.38;48.67;;;23.50;99.90;;;;;;5009186;28;20211;-76
2022/08/20 10:29:53;;;;;;;50.78;47.88;;;23.40;99.90;;;;;;5000549;28;20307;-76
2022/08/20 10:32:19;;;;;;;20.40;18.80;;;23.10;99.90;;;;;;4990165;28;20291;-77
2022/08/20 10:34:45;;;;;;;16.83;12.17;;;22.90;99.90;;;;;;4991349;28;20188;-76
2022/08/20 10:37:19;;;;;;;14.83;12.13;;;22.70;99.90;;;;;;4987556;28;20575;-75
2022/08/20 10:39:45;;;;;;;11.53;8.23;;;22.70;99.90;;;;;;4995460;28;20299;-75
2022/08/20 10:42:12;;;;;;;18.73;12.97;;;22.70;99.90;;;;;;5011697;28;20207;-75
2022/08/20 10:44:38;;;;;;;17.67;15.90;;;22.80;99.90;;;;;;5012318;28;20226;-75
2022/08/20 10:47:24;;;;;;;40.03;36.97;;;22.90;99.90;;;;;;5012141;28;20227;-75
2022/08/20 10:49:52;;;;;;;11.10;9.00;;;22.90;99.90;;;;;;5005727;28;20283;-74
2022/08/20 10:52:19;;;;;;;22.30;20.60;;;22.80;99.90;;;;;;4993108;28;20187;-76
2022/08/20 10:54:46;;;;;;;136.33;128.50;;;22.70;99.90;;;;;;4994038;28;20219;-76
2022/08/20 10:57:16;;;;;;;338.87;319.47;;;22.40;99.90;;;;;;4992265;28;20207;-77
2022/08/20 10:59:44;;;;;;;55.50;52.33;;;22.20;99.90;;;;;;4992811;28;20192;-75
2022/08/20 11:02:10;;;;;;;39.57;37.00;;;22.00;99.90;;;;;;4992631;28;20212;-75
2022/08/20 11:04:36;;;;;;;141.10;133.03;;;21.90;99.90;;;;;;4992795;28;20216;-76
2022/08/20 11:07:17;;;;;;;202.60;191.10;;;21.90;99.90;;;;;;4991145;28;20200;-76
2022/08/20 11:09:45;;;;;;;383.30;361.07;;;22.00;99.90;;;;;;4997247;28;20187;-75
2022/08/20 11:12:11;;;;;;;117.63;111.30;;;22.30;99.90;;;;;;5010861;28;20179;-75
2022/08/20 11:14:37;;;;;;;70.47;66.47;;;22.40;99.90;;;;;;5012166;28;20322;-74
2022/08/20 11:17:04;;;;;;;23.37;21.70;;;22.50;99.90;;;;;;5012311;28;20207;-75
2022/08/20 11:19:30;;;;;;;24.57;22.77;;;22.60;99.90;;;;;;5010652;28;20176;-76
2022/08/20 11:21:57;;;;;;;16.77;15.47;;;22.70;99.90;;;;;;5014832;28;20207;-75
2022/08/20 11:24:23;;;;;;;14.93;13.63;;;22.80;99.90;;;;;;5013571;28;20188;-74
2022/08/20 11:26:52;;;;;;;65.23;61.73;;;22.80;99.90;;;;;;5010976;28;20227;-75
2022/08/20 11:29:19;;;;;;;131.23;124.43;;;22.90;99.90;;;;;;5010713;28;20270;-75
2022/08/20 11:31:45;;;;;;;217.05;205.68;;;23.10;99.90;;;;;;4993775;28;20180;-75
2022/08/20 11:34:11;;;;;;;68.23;64.57;;;23.30;99.90;;;;;;4993896;28;20185;-74
2022/08/20 11:36:37;;;;;;;16.23;14.95;;;23.50;99.90;;;;;;4996856;28;20195;-75
2022/08/20 11:39:03;;;;;;;14.43;13.13;;;23.50;99.90;;;;;;4992802;28;20184;-75
2022/08/20 11:41:29;;;;;;;12.95;12.00;;;23.60;99.90;;;;;;5012104;28;20270;-75
2022/08/20 11:43:56;;;;;;;8.52;7.85;;;23.60;99.90;;;;;;5013065;28;20210;-75
2022/08/20 11:46:21;;;;;;;22.30;20.88;;;23.60;99.90;;;;;;5013055;28;20180;-74
2022/08/20 11:48:47;;;;;;;10.20;9.40;;;23.60;99.90;;;;;;5012071;28;20203;-73
2022/08/20 11:51:13;;;;;;;9.85;9.05;;;23.70;99.90;;;;;;5012129;28;20517;-74
2022/08/20 11:53:39;;;;;;;8.18;7.47;;;23.60;99.90;;;;;;5012564;28;20184;-74
2022/08/20 11:56:05;;;;;;;10.15;9.50;;;23.60;99.90;;;;;;5011675;28;20180;-74
2022/08/20 11:58:32;;;;;;;9.20;8.45;;;23.40;99.90;;;;;;5011934;28;20211;-72
2022/08/20 12:00:58;;;;;;;20.55;19.13;;;23.10;99.90;;;;;;4998891;28;20179;-75
2022/08/20 12:03:24;;;;;;;311.60;293.92;;;22.90;99.90;;;;;;4991964;28;20238;-75
2022/08/20 12:05:50;;;;;;;98.63;93.60;;;22.40;99.90;;;;;;4993198;28;20179;-75
2022/08/20 12:08:16;;;;;;;41.80;39.40;;;22.00;99.90;;;;;;4991549;28;20599;-71
2022/08/20 12:10:42;;;;;;;14.17;13.43;;;21.30;99.90;;;;;;4994639;28;20295;-73
2022/08/20 12:13:08;;;;;;;139.07;131.97;;;20.80;99.90;;;;;;4992358;28;20243;-73
2022/08/20 12:15:35;;;;;;;146.63;138.60;;;20.50;99.90;;;;;;4996518;28;20180;-73
2022/08/20 12:18:09;;;;;;;84.30;80.07;;;20.40;99.90;;;;;;4991528;28;20231;-74
2022/08/20 12:20:36;;;;;;;36.50;34.37;;;20.40;99.90;;;;;;5002508;28;20214;-74
2022/08/20 12:23:03;;;;;;;22.87;21.63;;;20.40;99.90;;;;;;5012064;28;20203;-74
2022/08/20 12:25:29;;;;;;;28.97;27.47;;;20.40;99.90;;;;;;4995533;28;20187;-74
2022/08/20 12:27:55;;;;;;;30.30;28.57;;;20.50;99.90;;;;;;4991623;28;20838;-74
2022/08/20 12:30:23;;;;;;;53.93;51.03;;;20.50;99.90;;;;;;5000192;28;20176;-74
2022/08/20 12:32:49;;;;;;;76.40;72.57;;;20.60;99.90;;;;;;5012185;28;20682;-75
2022/08/20 12:35:18;;;;;;;94.43;89.67;;;20.60;99.90;;;;;;5011880;28;20202;-76
2022/08/20 12:37:44;;;;;;;81.97;77.87;;;20.70;99.90;;;;;;5010036;28;20687;-75